Map

Track Data

SID SEASON NUMBER BASIN SUBBASIN NAME ISO_TIME NATURE LAT LON WMO_WIND WMO_PRES WMO_AGENCY TRACK_TYPE DIST2LAND LANDFALL IFLAG USA_AGENCY USA_ATCF_ID USA_LAT USA_LON USA_RECORD USA_STATUS USA_WIND USA_PRES USA_SSHS USA_R34_NE USA_R34_SE USA_R34_SW USA_R34_NW USA_R50_NE USA_R50_SE USA_R50_SW USA_R50_NW USA_R64_NE USA_R64_SE USA_R64_SW USA_R64_NW USA_POCI USA_ROCI USA_RMW USA_EYE TOKYO_LAT TOKYO_LON TOKYO_GRADE TOKYO_WIND TOKYO_PRES TOKYO_R50_DIR TOKYO_R50_LONG TOKYO_R50_SHORT TOKYO_R30_DIR TOKYO_R30_LONG TOKYO_R30_SHORT TOKYO_LAND CMA_LAT CMA_LON CMA_CAT CMA_WIND CMA_PRES HKO_LAT HKO_LON HKO_CAT HKO_WIND HKO_PRES NEWDELHI_LAT NEWDELHI_LON NEWDELHI_GRADE NEWDELHI_WIND NEWDELHI_PRES NEWDELHI_CI NEWDELHI_DP NEWDELHI_POCI REUNION_LAT REUNION_LON REUNION_TYPE REUNION_WIND REUNION_PRES REUNION_TNUM REUNION_CI REUNION_RMW REUNION_R34_NE REUNION_R34_SE REUNION_R34_SW REUNION_R34_NW REUNION_R50_NE REUNION_R50_SE REUNION_R50_SW REUNION_R50_NW REUNION_R64_NE REUNION_R64_SE REUNION_R64_SW REUNION_R64_NW BOM_LAT BOM_LON BOM_TYPE BOM_WIND BOM_PRES BOM_TNUM BOM_CI BOM_RMW BOM_R34_NE BOM_R34_SE BOM_R34_SW BOM_R34_NW BOM_R50_NE BOM_R50_SE BOM_R50_SW BOM_R50_NW BOM_R64_NE BOM_R64_SE BOM_R64_SW BOM_R64_NW BOM_ROCI BOM_POCI BOM_EYE BOM_POS_METHOD BOM_PRES_METHOD NADI_LAT NADI_LON NADI_CAT NADI_WIND NADI_PRES WELLINGTON_LAT WELLINGTON_LON WELLINGTON_WIND WELLINGTON_PRES DS824_LAT DS824_LON DS824_STAGE DS824_WIND DS824_PRES TD9636_LAT TD9636_LON TD9636_STAGE TD9636_WIND TD9636_PRES TD9635_LAT TD9635_LON TD9635_WIND TD9635_PRES TD9635_ROCI NEUMANN_LAT NEUMANN_LON NEUMANN_CLASS NEUMANN_WIND NEUMANN_PRES MLC_LAT MLC_LON MLC_CLASS MLC_WIND MLC_PRES USA_GUST BOM_GUST BOM_GUST_PER REUNION_GUST REUNION_GUST_PER USA_SEAHGT USA_SEARAD_NE USA_SEARAD_SE USA_SEARAD_SW USA_SEARAD_NW STORM_SPEED STORM_DIR
1991248N27304 1991 60 NA NA CLAUDETTE 1991-09-04 12:00:00 TS 26.7000 -55.9000 25 1014 hurdat_atl main 1359 1359 O_____________ hurdat_atl AL061991 26.7000 -55.9000 TD 25 1014 -1 2 55
1991248N27304 1991 60 NA NA CLAUDETTE 1991-09-04 15:00:00 TS 26.7675 -55.7951 main 1374 1374 P_____________ AL061991 26.7675 -55.7951 TD 27 1013 -1 2 60
1991248N27304 1991 60 NA NA CLAUDETTE 1991-09-04 18:00:00 TS 26.8000 -55.7000 30 1012 hurdat_atl main 1382 1382 O_____________ hurdat_atl AL061991 26.8000 -55.7000 TD 30 1012 -1 1 88
1991248N27304 1991 60 NA NA CLAUDETTE 1991-09-04 21:00:00 TS 26.7725 -55.6275 main 1389 1382 P_____________ AL061991 26.7725 -55.6275 TD 30 1011 -1 1 140
1991248N27304 1991 60 NA NA CLAUDETTE 1991-09-05 00:00:00 TS 26.7000 -55.6000 30 1010 hurdat_atl main 1382 1375 O_____________ hurdat_atl AL061991 26.7000 -55.6000 TD 30 1010 -1 2 174
1991248N27304 1991 60 NA NA CLAUDETTE 1991-09-05 03:00:00 TS 26.6150 -55.6200 main 1375 1360 P_____________ AL061991 26.6150 -55.6200 TD 30 1009 -1 2 205
1991248N27304 1991 60 NA NA CLAUDETTE 1991-09-05 06:00:00 TS 26.5000 -55.7000 30 1008 hurdat_atl main 1360 1345 O_____________ hurdat_atl AL061991 26.5000 -55.7000 TD 30 1008 -1 3 214
1991248N27304 1991 60 NA NA CLAUDETTE 1991-09-05 09:00:00 TS 26.3500 -55.8200 main 1338 1316 P_____________ AL061991 26.3500 -55.8200 TD 32 1006 -1 4 222
1991248N27304 1991 60 NA NA CLAUDETTE 1991-09-05 12:00:00 TS 26.2000 -56.0000 35 1004 hurdat_atl main 1316 1293 O_____________ hurdat_atl AL061991 26.2000 -56.0000 TS 35 1004 0 5 234
1991248N27304 1991 60 NA NA CLAUDETTE 1991-09-05 15:00:00 TS 26.0850 -56.2275 main 1293 1263 P_____________ AL061991 26.0850 -56.2275 TS 37 1002 0 5 246
1991248N27304 1991 60 NA NA CLAUDETTE 1991-09-05 18:00:00 TS 26.0000 -56.5000 40 1000 hurdat_atl main 1263 1233 O_____________ hurdat_atl AL061991 26.0000 -56.5000 TS 40 1000 0 5 252
1991248N27304 1991 60 NA NA CLAUDETTE 1991-09-05 21:00:00 TS 25.9274 -56.7776 main 1233 1211 P_____________ AL061991 25.9274 -56.7776 TS 45 997 0 5 259
1991248N27304 1991 60 NA NA CLAUDETTE 1991-09-06 00:00:00 TS 25.9000 -57.1000 50 994 hurdat_atl main 1211 1181 O_____________ hurdat_atl AL061991 25.9000 -57.1000 TS 50 994 0 6 270
1991248N27304 1991 60 NA NA CLAUDETTE 1991-09-06 03:00:00 TS 25.9274 -57.4775 main 1181 1161 P_____________ AL061991 25.9274 -57.4775 TS 55 990 0 7 278
1991248N27304 1991 60 NA NA CLAUDETTE 1991-09-06 06:00:00 TS 26.0000 -57.9000 60 987 hurdat_atl main 1161 1141 O_____________ hurdat_atl AL061991 26.0000 -57.9000 TS 60 987 0 8 282
1991248N27304 1991 60 NA NA CLAUDETTE 1991-09-06 09:00:00 TS 26.0924 -58.3425 main 1141 1117 P_____________ AL061991 26.0924 -58.3425 TS 67 983 1 8 284
1991248N27304 1991 60 NA NA CLAUDETTE 1991-09-06 12:00:00 TS 26.2000 -58.8000 75 979 hurdat_atl main 1117 1100 O_____________ hurdat_atl AL061991 26.2000 -58.8000 HU 75 979 1 9 284
1991248N27304 1991 60 NA NA CLAUDETTE 1991-09-06 15:00:00 TS 26.3000 -59.2725 main 1094 1080 P_____________ AL061991 26.3000 -59.2725 HU 85 972 2 8 284
1991248N27304 1991 60 NA NA CLAUDETTE 1991-09-06 18:00:00 TS 26.4000 -59.7000 95 965 hurdat_atl main 1080 1068 O_____________ hurdat_atl AL061991 26.4000 -59.7000 HU 95 965 2 7 287
1991248N27304 1991 60 NA NA CLAUDETTE 1991-09-06 21:00:00 TS 26.4997 -60.0151 main 1072 1065 P_____________ AL061991 26.4997 -60.0151 HU 100 959 3 6 290
1991248N27304 1991 60 NA NA CLAUDETTE 1991-09-07 00:00:00 TS 26.6000 -60.3000 105 953 hurdat_atl main 1065 1055 O_____________ hurdat_atl AL061991 26.6000 -60.3000 HU 105 953 3 6 289
1991248N27304 1991 60 NA NA CLAUDETTE 1991-09-07 03:00:00 TS 26.6908 -60.6385 main 1060 1050 P_____________ AL061991 26.6908 -60.6385 HU 107 949 3 7 288
1991248N27304 1991 60 NA NA CLAUDETTE 1991-09-07 06:00:00 TS 26.8000 -61.0000 110 946 hurdat_atl main 1050 1041 O_____________ hurdat_atl AL061991 26.8000 -61.0000 HU 110 946 3 7 290
1991248N27304 1991 60 NA NA CLAUDETTE 1991-09-07 09:00:00 TS 26.9281 -61.3842 main 1043 1043 P_____________ AL061991 26.9281 -61.3842 HU 113 944 4 7 294
1991248N27304 1991 60 NA NA CLAUDETTE 1991-09-07 10:00:00 TS 27.0000 -61.5000 115 944 hurdat_atl main 1049 1044 O_____________ hurdat_atl AL061991 27.0000 -61.5000 I HU 115 944 4 8 314
1991248N27304 1991 60 NA NA CLAUDETTE 1991-09-07 12:00:00 TS 27.2000 -61.7000 115 946 hurdat_atl main 1061 1057 O_____________ hurdat_atl AL061991 27.2000 -61.7000 HU 115 946 4 8 312
1991248N27304 1991 60 NA NA CLAUDETTE 1991-09-07 15:00:00 TS 27.4488 -62.0578 main 1067 1067 P_____________ AL061991 27.4488 -62.0578 HU 107 953 3 8 309
1991248N27304 1991 60 NA NA CLAUDETTE 1991-09-07 18:00:00 TS 27.7000 -62.4000 100 960 hurdat_atl main 1089 1089 O_____________ hurdat_atl AL061991 27.7000 -62.4000 HU 100 960 3 8 319
1991248N27304 1991 60 NA NA CLAUDETTE 1991-09-07 21:00:00 TS 28.0274 -62.6302 main 1115 1115 P_____________ AL061991 28.0274 -62.6302 HU 95 961 2 8 333
1991248N27304 1991 60 NA NA CLAUDETTE 1991-09-08 00:00:00 TS 28.4000 -62.8000 90 962 hurdat_atl main 1153 1153 O_____________ hurdat_atl AL061991 28.4000 -62.8000 HU 90 962 2 8 339
1991248N27304 1991 60 NA NA CLAUDETTE 1991-09-08 03:00:00 TS 28.7925 -62.9651 main 1191 1191 P_____________ AL061991 28.7925 -62.9651 HU 87 963 2 8 342
1991248N27304 1991 60 NA NA CLAUDETTE 1991-09-08 06:00:00 TS 29.2000 -63.1000 85 964 hurdat_atl main 1233 1233 O_____________ hurdat_atl AL061991 29.2000 -63.1000 HU 85 964 2 8 344
1991248N27304 1991 60 NA NA CLAUDETTE 1991-09-08 09:00:00 TS 29.5850 -63.2299 main 1274 1274 P_____________ AL061991 29.5850 -63.2299 HU 85 965 2 8 348
1991248N27304 1991 60 NA NA CLAUDETTE 1991-09-08 12:00:00 TS 30.0000 -63.3000 85 966 hurdat_atl main 1306 1277 O_____________ hurdat_atl AL061991 30.0000 -63.3000 HU 85 966 2 9 355
1991248N27304 1991 60 NA NA CLAUDETTE 1991-09-08 15:00:00 TS 30.4923 -63.3171 main 1277 1254 P_____________ AL061991 30.4923 -63.3171 HU 82 966 1 10 5
1991248N27304 1991 60 NA NA CLAUDETTE 1991-09-08 18:00:00 TS 31.0000 -63.2000 80 967 hurdat_atl main 1257 1250 O_____________ hurdat_atl AL061991 31.0000 -63.2000 HU 80 967 1 10 19
1991248N27304 1991 60 NA NA CLAUDETTE 1991-09-08 21:00:00 TS 31.4499 -62.9247 main 1262 1257 P_____________ AL061991 31.4499 -62.9247 HU 80 969 1 11 34
1991248N27304 1991 60 NA NA CLAUDETTE 1991-09-09 00:00:00 TS 31.9000 -62.5000 80 972 hurdat_atl main 1273 1253 O_____________ hurdat_atl AL061991 31.9000 -62.5000 HU 80 972 1 13 41
1991248N27304 1991 60 NA NA CLAUDETTE 1991-09-09 03:00:00 TS 32.4003 -61.9654 main 1253 1227 P_____________ AL061991 32.4003 -61.9654 HU 77 974 1 14 43
1991248N27304 1991 60 NA NA CLAUDETTE 1991-09-09 06:00:00 TS 32.9000 -61.4000 75 976 hurdat_atl main 1227 1184 O_____________ hurdat_atl AL061991 32.9000 -61.4000 HU 75 976 1 13 40
1991248N27304 1991 60 NA NA CLAUDETTE 1991-09-09 09:00:00 TS 33.3941 -60.9793 main 1184 1153 P_____________ AL061991 33.3941 -60.9793 HU 75 978 1 12 40
1991248N27304 1991 60 NA NA CLAUDETTE 1991-09-09 12:00:00 TS 33.8000 -60.5000 75 980 hurdat_atl main 1156 1148 O_____________ hurdat_atl AL061991 33.8000 -60.5000 HU 75 980 1 12 56
1991248N27304 1991 60 NA NA CLAUDETTE 1991-09-09 15:00:00 TS 34.0601 -59.8023 main 1148 1148 P_____________ AL061991 34.0601 -59.8023 HU 75 982 1 13 72
1991248N27304 1991 60 NA NA CLAUDETTE 1991-09-09 18:00:00 TS 34.2000 -59.0000 75 984 hurdat_atl main 1168 1168 O_____________ hurdat_atl AL061991 34.2000 -59.0000 HU 75 984 1 14 79
1991248N27304 1991 60 NA NA CLAUDETTE 1991-09-09 21:00:00 TS 34.3099 -58.1928 main 1192 1192 P_____________ AL061991 34.3099 -58.1928 HU 72 986 1 13 86
1991248N27304 1991 60 NA NA CLAUDETTE 1991-09-10 00:00:00 TS 34.3000 -57.4000 70 988 hurdat_atl main 1228 1228 O_____________ hurdat_atl AL061991 34.3000 -57.4000 HU 70 988 1 12 98
1991248N27304 1991 60 NA NA CLAUDETTE 1991-09-10 03:00:00 TS 34.1359 -56.7297 main 1281 1281 P_____________ AL061991 34.1359 -56.7297 HU 65 989 1 12 109
1991248N27304 1991 60 NA NA CLAUDETTE 1991-09-10 06:00:00 TS 33.9000 -56.0000 60 991 hurdat_atl main 1330 1330 O_____________ hurdat_atl AL061991 33.9000 -56.0000 TS 60 991 0 15 108
1991248N27304 1991 60 NA NA CLAUDETTE 1991-09-10 09:00:00 TS 33.6773 -55.0593 main 1378 1378 P_____________ AL061991 33.6773 -55.0593 TS 57 993 0 17 104
1991248N27304 1991 60 NA NA CLAUDETTE 1991-09-10 12:00:00 TS 33.5000 -54.0000 55 995 hurdat_atl main 1436 1436 O_____________ hurdat_atl AL061991 33.5000 -54.0000 TS 55 995 0 18 99
1991248N27304 1991 60 NA NA CLAUDETTE 1991-09-10 15:00:00 TS 33.4026 -52.9748 main 1469 1469 P_____________ AL061991 33.4026 -52.9748 TS 50 996 0 18 93
1991248N27304 1991 60 NA NA CLAUDETTE 1991-09-10 18:00:00 TS 33.4000 -51.8000 45 998 hurdat_atl main 1473 1473 O_____________ hurdat_atl AL061991 33.4000 -51.8000 TS 45 998 0 22 88
1991248N27304 1991 60 NA NA CLAUDETTE 1991-09-10 21:00:00 TS 33.4710 -50.3379 main 1478 1478 P_____________ AL061991 33.4710 -50.3379 TS 42 999 0 25 85
1991248N27304 1991 60 NA NA CLAUDETTE 1991-09-11 00:00:00 TS 33.6000 -48.8000 40 1001 hurdat_atl main 1493 1493 O_____________ hurdat_atl AL061991 33.6000 -48.8000 TS 40 1001 0 24 84
1991248N27304 1991 60 NA NA CLAUDETTE 1991-09-11 03:00:00 TS 33.7328 -47.4270 main 1516 1511 P_____________ AL061991 33.7328 -47.4270 TS 40 1002 0 23 82
1991248N27304 1991 60 NA NA CLAUDETTE 1991-09-11 06:00:00 TS 33.9000 -46.1000 40 1004 hurdat_atl main 1534 1534 O_____________ hurdat_atl AL061991 33.9000 -46.1000 TS 40 1004 0 22 80
1991248N27304 1991 60 NA NA CLAUDETTE 1991-09-11 09:00:00 TS 34.1055 -44.7653 main 1559 1559 P_____________ AL061991 34.1055 -44.7653 TS 37 1005 0 23 80
1991248N27304 1991 60 NA NA CLAUDETTE 1991-09-11 12:00:00 TS 34.3000 -43.4000 35 1006 hurdat_atl main 1596 1596 O_____________ hurdat_atl AL061991 34.3000 -43.4000 TS 35 1006 0 24 82
1991248N27304 1991 60 NA NA CLAUDETTE 1991-09-11 15:00:00 TS 34.4305 -41.9124 main 1654 1654 P_____________ AL061991 34.4305 -41.9124 TS 32 1007 -1 24 85
1991248N27304 1991 60 NA NA CLAUDETTE 1991-09-11 18:00:00 TS 34.5000 -40.5000 30 1009 hurdat_atl main 1715 1715 O_____________ hurdat_atl AL061991 34.5000 -40.5000 TD 30 1009 -1 21 87
1991248N27304 1991 60 NA NA CLAUDETTE 1991-09-11 21:00:00 TS 34.5357 -39.3177 main 1778 1778 P_____________ AL061991 34.5357 -39.3177 TD 30 1009 -1 18 90
1991248N27304 1991 60 NA NA CLAUDETTE 1991-09-12 00:00:00 TS 34.5000 -38.3000 30 1010 hurdat_atl main 1834 1834 O_____________ hurdat_atl AL061991 34.5000 -38.3000 TD 30 1010 -1 16 96
1991248N27304 1991 60 NA NA CLAUDETTE 1991-09-12 03:00:00 TS 34.3711 -37.3697 main 1894 1894 P_____________ AL061991 34.3711 -37.3697 TD 30 1010 -1 15 101
1991248N27304 1991 60 NA NA CLAUDETTE 1991-09-12 06:00:00 TS 34.2000 -36.5000 30 1011 hurdat_atl main 1964 1892 O_____________ hurdat_atl AL061991 34.2000 -36.5000 TD 30 1011 -1 15 104
1991248N27304 1991 60 NA NA CLAUDETTE 1991-09-12 09:00:00 TS 33.9972 -35.5837 main 1892 1809 P_____________ AL061991 33.9972 -35.5837 TD 30 1011 -1 15 101
1991248N27304 1991 60 NA NA CLAUDETTE 1991-09-12 12:00:00 TS 33.9000 -34.7000 30 1012 hurdat_atl main 1809 1741 O_____________ hurdat_atl AL061991 33.9000 -34.7000 TD 30 1012 -1 14 88
1991248N27304 1991 60 NA NA CLAUDETTE 1991-09-12 15:00:00 TS 34.0472 -33.8564 main 1741 1682 P_____________ AL061991 34.0472 -33.8564 TD 30 1012 -1 14 73
1991248N27304 1991 60 NA NA CLAUDETTE 1991-09-12 18:00:00 ET 34.3000 -33.1000 30 1013 hurdat_atl main 1682 1638 O_____________ hurdat_atl AL061991 34.3000 -33.1000 EX 30 1013 -4 12 69
1991248N27304 1991 60 NA NA CLAUDETTE 1991-09-12 21:00:00 ET 34.4917 -32.4694 main 1638 1595 P_____________ AL061991 34.4917 -32.4694 EX 27 1013 -4 11 68
1991248N27304 1991 60 NA NA CLAUDETTE 1991-09-13 00:00:00 ET 34.7000 -31.9000 25 1014 hurdat_atl main 1595 1553 O_____________ hurdat_atl AL061991 34.7000 -31.9000 EX 25 1014 -4 11 65
1991248N27304 1991 60 NA NA CLAUDETTE 1991-09-13 03:00:00 ET 34.9498 -31.2925 main 1553 1518 P_____________ AL061991 34.9498 -31.2925 EX 25 1014 -4 11 63
1991248N27304 1991 60 NA NA CLAUDETTE 1991-09-13 06:00:00 ET 35.2000 -30.7000 25 1015 hurdat_atl main 1518 1489 O_____________ hurdat_atl AL061991 35.2000 -30.7000 EX 25 1015 -4 10 64
1991248N27304 1991 60 NA NA CLAUDETTE 1991-09-13 09:00:00 ET 35.4070 -30.1495 main 1481 1452 P_____________ AL061991 35.4070 -30.1495 EX 22 1015 -4 10 66
1991248N27304 1991 60 NA NA CLAUDETTE 1991-09-13 12:00:00 ET 35.6000 -29.6000 20 1016 hurdat_atl main 1452 1418 O_____________ hurdat_atl AL061991 35.6000 -29.6000 EX 20 1016 -4 10 66
1991248N27304 1991 60 NA NA CLAUDETTE 1991-09-13 15:00:00 ET 35.8149 -29.0001 main 1418 1385 P_____________ AL061991 35.8149 -29.0001 EX 20 1016 -4 11 68
1991248N27304 1991 60 NA NA CLAUDETTE 1991-09-13 18:00:00 ET 36.0000 -28.4000 20 1017 hurdat_atl main 1385 1356 O_____________ hurdat_atl AL061991 36.0000 -28.4000 EX 20 1017 -4 10 72
1991248N27304 1991 60 NA NA CLAUDETTE 1991-09-13 21:00:00 ET 36.1224 -27.8197 main 1348 1320 P_____________ AL061991 36.1224 -27.8197 EX 20 1017 -4 9 77
1991248N27304 1991 60 NA NA CLAUDETTE 1991-09-14 00:00:00 ET 36.2000 -27.3000 20 1017 hurdat_atl main 1320 1292 O_____________ hurdat_atl AL061991 36.2000 -27.3000 EX 20 1017 -4 8 82
1991248N27304 1991 60 NA NA CLAUDETTE 1991-09-14 03:00:00 ET 36.2273 -26.8470 main 1286 1273 P_____________ AL061991 36.2273 -26.8470 EX 17 1017 -4 7 81
1991248N27304 1991 60 NA NA CLAUDETTE 1991-09-14 06:00:00 ET 36.3000 -26.5000 15 1017 hurdat_atl main 1273 1266 O_____________ hurdat_atl AL061991 36.3000 -26.5000 EX 15 1017 -4 6 56
1991248N27304 1991 60 NA NA CLAUDETTE 1991-09-14 09:00:00 ET 36.5423 -26.2552 main 1274 1274 P_____________ AL061991 36.5423 -26.2552 EX 15 1017 -4 6 33
1991248N27304 1991 60 NA NA CLAUDETTE 1991-09-14 12:00:00 ET 36.8000 -26.1000 15 1018 hurdat_atl main 1285 1285 O_____________ hurdat_atl AL061991 36.8000 -26.1000 EX 15 1018 -4 5 28
1991248N27304 1991 60 NA NA CLAUDETTE 1991-09-14 15:00:00 ET 36.9401 -25.9899 main 1286 1286 P_____________ AL061991 36.9401 -25.9899 EX 15 1018 -4 3 39
1991248N27304 1991 60 NA NA CLAUDETTE 1991-09-14 18:00:00 ET 37.0000 -25.9000 15 1018 hurdat_atl main 1288 O_____________ hurdat_atl AL061991 37.0000 -25.9000 EX 15 1018 -4 2 47

About IBTrACS Database

This database is a web-friendly format of International Best Track Archive for Climate Stewardship (IBTrACS), a global best track data archive curated by NOAA dating back to 1842.

Updated: 2021-10-27